Terminal Aerodrome Forecast
Issued by NWS Cleveland, OH

Home | Current Version | Previous Version | Text Only | Print | Product List | Glossary On
Versions: 1 2 3 4 5 6 7 8 9 10 11 12 13 14 15
000
FTUS41 KCLE 221300 AAA
TAFERI
TAF AMD
KERI 221329Z 2213/2312 15008KT P6SM FEW045 BKN150
     FM221800 15010KT P6SM BKN045
     FM222200 15010KT P6SM OVC035
     FM230900 14012G20KT P6SM VCSH SCT015 OVC025=

USA.gov is the U.S. government's official web portal to all federal, state and local government web resources and services.